San Francisco, CA

3:31 PM PST on March 01, 2015 (GMT -0800)
San Francisco International | Change Station
CLOSE
Current Station
Airport
Location: San Francisco,
Elevation: 16 ft
Nearby Weather Stations

Elev 16 ft 37.62 °N, 122.37 °W | Updated 35 minutes ago

Clear
Clear
64 °F
Feels Like 64 °F
N
0
Wind Variable Wind from North

Today
High -- | Low -- °F
--% Chance of Precip.
Yesterday
High -- | Low -- °F
Precip. -- in
6:41 AM 6:03 PM
Waxing Gibbous, 88% visible
Pressure 29.93 in
Visibility 10.0 miles
Clouds Few 3000 ft
Dew Point 39 °F
Humidity 40%
Rainfall 0.00 in
Snow Depth Not available.
UV 3 out of 12
Pollen 8.20 out of 12
Air Quality Not available.
Flu Activity Not available.
METAR KSFO 012256Z 00000KT 10SM FEW030 18/04 A2993 RMK AO2 SLP134 T01780039

More Conditions Fewer Conditions

Pressure 29.93 in
Visibility 10.0 miles
Clouds Few 3000 ft
Dew Point 39 °F
Humidity 40%
Rainfall 0.00 in
Snow Depth Not available.
UV 3 out of 12
Pollen 8.20 out of 12
Air Quality Not available.
Flu Activity Not available.
METAR KSFO 012256Z 00000KT 10SM FEW030 18/04 A2993 RMK AO2 SLP134 T01780039

More Conditions Fewer Conditions

10-Day Weather Forecast

Almanac

Astronomy

Mar. 01, 2015 Rise Set
Actual Time
Civil Twilight
Nautical Twilight
Astronomical Twilight
Moon
Length of Visible Light
Length of Day
Tomorrow will be .
, % of the Moon is Illuminated

Today's Extremes

State Highs State Lows

Community

WunderPhotos

Upload Photos

1,801,610 photos uploaded!

WunderBlogs® & News

Nearby

Air Quality

  Air Quality AQ Index Pollutant
Not available.

Snow Depth

Station Depth Elevation

Earthquake Activity

City Distance Mag. Time & Date
Minimum magnitude displayed is 2.5.

Coastal Water Temperatures

Place Temperature

Nearby Weather Stations